Time;durP1;ratioP1;P1;durP2;ratioP2;P2;SDS_P1;SDS_P2;PMS_P1;PMS_P2;Temp;Humidity;BMP_temperature;BMP_pressure;BME280_temperature;BME280_humidity;BME280_pressure;Samples;Min_cycle;Max_cycle;Signal;HPM_P1;HPM_P2
2023/03/16 00:02:05;;;;;;;5.70;2.77;;;1.50;1.00;;;;;;5052605;28;20468;-73
2023/03/16 00:04:31;;;;;;;3.70;2.97;;;1.40;1.00;;;;;;5053864;28;20519;-70
2023/03/16 00:06:57;;;;;;;3.93;2.10;;;1.40;1.00;;;;;;5051560;28;20429;-72
2023/03/16 00:09:29;;;;;;;2.47;2.27;;;1.30;1.00;;;;;;5051161;28;20433;-72
2023/03/16 00:12:01;;;;;;;11.17;3.87;;;1.30;1.00;;;;;;5049678;28;20433;-68
2023/03/16 00:14:28;;;;;;;4.50;3.53;;;1.30;6.10;;;;;;5044211;28;20415;-67
2023/03/16 00:16:53;;;;;;;9.80;3.87;;;1.30;5.90;;;;;;5032974;28;20406;-71
2023/03/16 00:19:21;;;;;;;3.20;2.30;;;1.30;13.90;;;;;;5039564;28;20464;-74
2023/03/16 00:21:48;;;;;;;18.77;3.30;;;1.30;25.20;;;;;;5034794;28;20191;-67
2023/03/16 00:24:17;;;;;;;2.50;1.90;;;1.30;30.00;;;;;;5053175;28;20503;-67
2023/03/16 00:26:44;;;;;;;3.90;2.47;;;1.30;35.00;;;;;;5052630;28;20405;-74
2023/03/16 00:29:10;;;;;;;4.40;2.87;;;1.30;40.40;;;;;;5053265;28;20508;-67
2023/03/16 00:31:38;;;;;;;6.87;3.10;;;1.30;51.50;;;;;;5052215;28;20894;-67
2023/03/16 00:34:04;;;;;;;7.50;2.60;;;1.30;52.50;;;;;;5051676;28;20571;-68
2023/03/16 00:36:32;;;;;;;5.70;2.40;;;1.30;54.20;;;;;;5053317;28;20887;-68
2023/03/16 00:38:58;;;;;;;2.93;2.40;;;1.20;60.30;;;;;;5053345;28;20627;-68
2023/03/16 00:41:24;;;;;;;6.83;2.37;;;1.20;58.10;;;;;;5052013;28;20431;-74
2023/03/16 00:43:50;;;;;;;2.07;1.97;;;1.20;60.50;;;;;;5053257;28;20563;-74
2023/03/16 00:46:16;;;;;;;2.43;2.27;;;1.10;67.40;;;;;;5051629;28;20449;-73
2023/03/16 00:48:44;;;;;;;3.13;2.43;;;1.10;61.40;;;;;;5041672;28;20427;-73
2023/03/16 00:51:13;;;;;;;3.80;2.20;;;1.10;63.70;;;;;;5052132;28;20493;-68
2023/03/16 00:53:40;;;;;;;3.03;2.83;;;1.00;63.60;;;;;;5052929;28;20409;-74
2023/03/16 00:56:07;;;;;;;2.37;2.00;;;1.00;66.40;;;;;;5052986;28;20408;-73
2023/03/16 00:58:35;;;;;;;9.27;3.17;;;0.90;67.00;;;;;;5052677;28;20449;-73
2023/03/16 01:01:13;;;;;;;9.83;2.83;;;0.90;68.40;;;;;;5049448;28;20433;-68
2023/03/16 01:03:40;;;;;;;4.33;2.33;;;0.90;70.80;;;;;;5051061;28;20429;-68
2023/03/16 01:06:15;;;;;;;3.80;2.90;;;0.90;85.70;;;;;;5052862;28;20612;-68
2023/03/16 01:08:42;;;;;;;6.60;2.77;;;0.90;84.00;;;;;;5052577;28;20412;-74
2023/03/16 01:11:11;;;;;;;7.03;2.67;;;0.90;88.40;;;;;;5052073;28;20819;-68
2023/03/16 01:13:38;;;;;;;3.70;3.50;;;0.90;88.50;;;;;;5052647;28;20417;-75
2023/03/16 01:16:04;;;;;;;4.05;2.47;;;0.80;88.40;;;;;;5050961;28;20440;-68
2023/03/16 01:18:34;;;;;;;7.63;2.63;;;0.80;88.50;;;;;;5052165;28;20558;-67
2023/03/16 01:21:05;;;;;;;6.50;3.30;;;0.70;88.30;;;;;;5051294;28;20413;-68
2023/03/16 01:23:31;;;;;;;4.07;2.30;;;0.70;88.30;;;;;;5052420;28;20429;-74
2023/03/16 01:25:58;;;;;;;3.77;2.97;;;0.70;88.30;;;;;;5052680;28;20476;-74
2023/03/16 01:28:26;;;;;;;10.75;2.83;;;0.70;88.30;;;;;;5052740;28;20447;-68
2023/03/16 01:30:54;;;;;;;9.90;2.70;;;0.70;88.30;;;;;;5038011;28;20616;-68
2023/03/16 01:33:25;;;;;;;2.60;2.40;;;0.80;88.40;;;;;;5056504;28;20421;-68
2023/03/16 01:35:55;;;;;;;3.53;3.17;;;0.80;88.50;;;;;;5056691;28;20664;-71
2023/03/16 01:38:21;;;;;;;8.63;2.70;;;0.80;88.40;;;;;;5044536;28;20914;-67
2023/03/16 01:40:50;;;;;;;4.70;2.80;;;0.80;91.40;;;;;;5035123;28;20398;-74
2023/03/16 01:43:17;;;;;;;5.70;3.17;;;0.80;93.70;;;;;;5051460;28;21011;-75
2023/03/16 01:46:05;;;;;;;8.65;2.78;;;0.80;96.90;;;;;;5056433;28;20449;-68
2023/03/16 01:48:44;;;;;;;3.50;2.50;;;0.80;97.80;;;;;;5056423;28;20174;-74
2023/03/16 01:51:49;;;;;;;5.35;2.70;;;0.80;98.10;;;;;;5037283;28;20404;-68
2023/03/16 01:54:26;;;;;;;2.33;2.00;;;0.80;99.10;;;;;;4959130;28;20178;-74
2023/03/16 01:56:58;;;;;;;3.10;2.80;;;0.80;99.90;;;;;;5040735;28;20183;-68
2023/03/16 01:59:32;;;;;;;2.60;2.30;;;0.80;99.90;;;;;;5055252;28;20624;-73
2023/03/16 02:01:58;;;;;;;3.40;2.47;;;0.80;99.90;;;;;;5040759;28;20191;-68
2023/03/16 02:04:36;;;;;;;5.60;3.33;;;0.70;99.90;;;;;;5056218;28;20162;-68
2023/03/16 02:07:04;;;;;;;10.38;3.17;;;0.80;99.90;;;;;;5055917;28;20436;-74
2023/03/16 02:09:30;;;;;;;6.93;2.87;;;0.70;99.90;;;;;;5056038;28;20168;-74
2023/03/16 02:11:58;;;;;;;24.20;3.20;;;0.70;99.90;;;;;;5053603;28;20472;-68
2023/03/16 02:14:24;;;;;;;5.18;2.70;;;0.70;99.90;;;;;;5055059;28;20421;-75
2023/03/16 02:16:50;;;;;;;4.63;2.73;;;0.70;99.90;;;;;;5055665;28;20193;-68
2023/03/16 02:19:35;;;;;;;3.83;2.70;;;0.70;99.90;;;;;;5055309;28;20610;-73
2023/03/16 02:22:05;;;;;;;8.37;3.10;;;0.70;99.90;;;;;;5054452;28;20464;-74
2023/03/16 02:24:31;;;;;;;9.68;3.05;;;0.60;99.90;;;;;;5053128;28;20802;-74
2023/03/16 02:27:15;;;;;;;3.85;2.50;;;0.60;99.90;;;;;;5035481;28;20547;-74
2023/03/16 02:30:02;;;;;;;9.27;2.83;;;0.60;99.90;;;;;;5021500;28;20186;-74
2023/03/16 02:32:31;;;;;;;2.55;2.35;;;0.60;99.90;;;;;;5044307;28;20251;-74
2023/03/16 02:34:58;;;;;;;8.50;4.10;;;0.60;99.90;;;;;;5055582;28;20706;-75
2023/03/16 02:37:26;;;;;;;7.53;3.00;;;0.70;99.90;;;;;;5054764;28;20425;-75
2023/03/16 02:39:52;;;;;;;5.45;2.63;;;0.60;99.90;;;;;;5053588;28;20436;-69
2023/03/16 02:42:22;;;;;;;9.13;3.20;;;0.60;99.90;;;;;;5054381;28;20206;-67
2023/03/16 02:44:59;;;;;;;7.53;3.10;;;0.60;99.90;;;;;;5055315;28;20276;-68
2023/03/16 02:47:42;;;;;;;5.97;3.35;;;0.60;99.90;;;;;;5036661;28;20763;-68
2023/03/16 02:50:10;;;;;;;5.13;3.38;;;0.60;99.90;;;;;;5054305;28;20178;-68
2023/03/16 02:52:37;;;;;;;12.00;3.60;;;0.70;99.90;;;;;;5052396;28;20187;-74
2023/03/16 02:55:07;;;;;;;15.23;3.70;;;0.80;99.90;;;;;;5054705;28;20394;-68
2023/03/16 02:57:33;;;;;;;7.47;3.80;;;0.80;99.90;;;;;;5037264;28;20229;-74
2023/03/16 03:00:00;;;;;;;12.45;6.25;;;0.90;99.90;;;;;;5054852;28;20405;-74
2023/03/16 03:02:25;;;;;;;6.80;3.57;;;0.90;99.90;;;;;;5053565;28;20207;-74
2023/03/16 03:04:53;;;;;;;5.73;3.70;;;0.90;99.90;;;;;;5053258;28;20469;-67
2023/03/16 03:07:20;;;;;;;6.10;3.45;;;0.90;99.90;;;;;;5053352;28;20511;-69
2023/03/16 03:09:46;;;;;;;10.73;3.40;;;1.00;99.90;;;;;;5037374;28;20183;-74
2023/03/16 03:12:12;;;;;;;11.20;4.03;;;1.00;99.90;;;;;;5035654;28;20183;-74
2023/03/16 03:14:38;;;;;;;5.60;4.23;;;1.10;99.90;;;;;;5054246;28;20425;-68
2023/03/16 03:17:06;;;;;;;9.90;3.63;;;1.10;99.90;;;;;;5054967;28;20401;-68
2023/03/16 03:19:32;;;;;;;12.00;3.20;;;1.20;99.90;;;;;;5053566;28;20456;-73
2023/03/16 03:22:02;;;;;;;9.70;3.60;;;1.20;99.90;;;;;;5051707;28;20855;-68
2023/03/16 03:24:29;;;;;;;3.93;3.63;;;1.30;99.90;;;;;;5054277;28;20413;-68
2023/03/16 03:26:55;;;;;;;6.77;3.63;;;1.30;99.90;;;;;;5054605;28;20393;-67
2023/03/16 03:29:20;;;;;;;5.70;3.93;;;1.30;99.90;;;;;;5036604;28;20980;-68
2023/03/16 03:31:46;;;;;;;8.87;4.27;;;1.40;99.90;;;;;;5053169;28;20249;-74
2023/03/16 03:34:12;;;;;;;5.87;4.47;;;1.40;99.90;;;;;;5052483;28;20189;-68
2023/03/16 03:36:37;;;;;;;8.60;4.20;;;1.40;99.90;;;;;;5054281;28;20166;-74
2023/03/16 03:39:03;;;;;;;4.87;3.77;;;1.30;99.90;;;;;;5043719;28;20183;-74
2023/03/16 03:41:31;;;;;;;5.00;3.23;;;1.30;99.90;;;;;;5033478;28;20194;-74
2023/03/16 03:43:58;;;;;;;3.80;3.43;;;1.30;99.90;;;;;;5047259;28;20868;-74
2023/03/16 03:46:25;;;;;;;17.15;4.55;;;1.30;99.90;;;;;;5053290;28;20547;-68
2023/03/16 03:48:51;;;;;;;5.57;4.90;;;1.30;99.90;;;;;;5053237;28;20665;-74
2023/03/16 03:51:16;;;;;;;11.33;4.97;;;1.40;99.90;;;;;;5051654;28;20425;-74
2023/03/16 03:53:42;;;;;;;7.83;4.20;;;1.40;99.90;;;;;;5026507;28;20179;-68
2023/03/16 03:56:08;;;;;;;6.73;3.90;;;1.40;99.90;;;;;;5034094;28;20179;-68
2023/03/16 03:58:34;;;;;;;4.87;4.17;;;1.40;99.90;;;;;;5045359;28;20646;-68
2023/03/16 04:01:00;;;;;;;7.00;3.43;;;1.40;99.90;;;;;;5051078;28;20499;-67
2023/03/16 04:03:26;;;;;;;8.40;3.43;;;1.40;99.90;;;;;;5053712;28;20183;-74
2023/03/16 04:05:51;;;;;;;9.60;4.10;;;1.40;99.90;;;;;;5053877;28;20191;-69
2023/03/16 04:08:17;;;;;;;7.00;3.07;;;1.40;99.90;;;;;;5027584;28;20172;-67
2023/03/16 04:10:43;;;;;;;8.60;3.90;;;1.50;99.90;;;;;;5038348;28;20214;-74
2023/03/16 04:13:09;;;;;;;17.27;6.93;;;1.50;99.90;;;;;;5034982;28;20457;-67
2023/03/16 04:15:37;;;;;;;11.07;4.27;;;1.50;99.90;;;;;;5036185;28;20757;-68
2023/03/16 04:18:03;;;;;;;5.73;3.33;;;1.60;99.90;;;;;;5053449;28;20421;-74
2023/03/16 04:20:29;;;;;;;6.30;3.73;;;1.60;99.90;;;;;;5035115;28;20906;-74
2023/03/16 04:22:57;;;;;;;9.90;5.03;;;1.60;99.90;;;;;;5052102;28;20460;-74
2023/03/16 04:25:25;;;;;;;15.60;4.40;;;1.50;99.90;;;;;;5051954;28;20225;-68
2023/03/16 04:27:51;;;;;;;7.37;3.67;;;1.60;99.90;;;;;;5034997;28;20440;-70
2023/03/16 04:30:17;;;;;;;9.07;3.80;;;1.60;99.90;;;;;;5052198;28;20393;-68
2023/03/16 04:32:43;;;;;;;27.33;5.33;;;1.70;99.90;;;;;;5035415;28;20496;-68
2023/03/16 04:35:09;;;;;;;12.20;4.50;;;1.70;99.90;;;;;;5052373;28;20574;-68
2023/03/16 04:37:35;;;;;;;5.23;3.67;;;1.70;99.90;;;;;;5052993;28;20232;-74
2023/03/16 04:40:09;;;;;;;5.00;3.50;;;1.70;99.90;;;;;;5052429;28;20437;-68
2023/03/16 04:42:35;;;;;;;11.00;4.83;;;1.70;99.90;;;;;;5052931;28;20971;-69
2023/03/16 04:45:01;;;;;;;7.90;4.03;;;1.80;99.90;;;;;;5035513;28;20589;-74
2023/03/16 04:47:27;;;;;;;10.13;3.40;;;1.80;99.90;;;;;;5034427;28;20529;-74
2023/03/16 04:49:52;;;;;;;5.60;5.00;;;1.80;99.90;;;;;;5052067;28;20479;-74
2023/03/16 04:52:18;;;;;;;5.53;5.03;;;1.80;99.90;;;;;;5034636;28;20575;-68
2023/03/16 04:54:44;;;;;;;6.83;3.60;;;1.80;99.90;;;;;;5034673;28;20194;-68
2023/03/16 04:57:10;;;;;;;15.87;4.60;;;1.80;99.90;;;;;;5052832;28;20170;-74
2023/03/16 04:59:35;;;;;;;5.70;5.03;;;1.80;99.90;;;;;;5050199;28;20549;-74
2023/03/16 05:02:02;;;;;;;14.37;5.00;;;1.70;99.90;;;;;;5051494;28;20218;-74
2023/03/16 05:04:28;;;;;;;5.40;4.57;;;1.70;99.90;;;;;;5052664;28;20253;-68
2023/03/16 05:06:54;;;;;;;8.37;3.40;;;1.60;99.90;;;;;;5052317;28;20505;-74
2023/03/16 05:09:19;;;;;;;12.77;4.60;;;1.60;99.90;;;;;;5034004;28;20182;-74
2023/03/16 05:11:45;;;;;;;7.63;5.20;;;1.60;99.90;;;;;;5051499;28;20244;-68
2023/03/16 05:14:11;;;;;;;7.60;4.87;;;1.50;99.90;;;;;;5052916;28;20167;-74
2023/03/16 05:16:37;;;;;;;8.17;4.30;;;1.50;99.90;;;;;;5034925;28;20206;-74
2023/03/16 05:19:03;;;;;;;4.53;4.13;;;1.50;99.90;;;;;;5052966;28;20158;-74
2023/03/16 05:21:30;;;;;;;9.87;5.80;;;1.50;99.90;;;;;;5050587;28;20591;-74
2023/03/16 05:23:57;;;;;;;6.27;4.43;;;1.50;99.90;;;;;;5051771;28;20445;-74
2023/03/16 05:26:24;;;;;;;11.50;5.10;;;1.50;99.90;;;;;;5034138;28;20457;-68
2023/03/16 05:28:50;;;;;;;7.73;4.23;;;1.50;99.90;;;;;;5052656;28;20925;-67
2023/03/16 05:31:17;;;;;;;10.80;4.07;;;1.50;99.90;;;;;;5050228;28;20996;-69
2023/03/16 05:33:43;;;;;;;13.27;3.90;;;1.50;99.90;;;;;;5052705;28;20394;-74
2023/03/16 05:36:09;;;;;;;8.83;4.47;;;1.50;99.90;;;;;;5051407;28;20435;-68
2023/03/16 05:38:36;;;;;;;5.87;4.23;;;1.60;99.90;;;;;;5034725;28;20909;-68
2023/03/16 05:41:03;;;;;;;7.27;4.73;;;1.60;99.90;;;;;;5042521;28;20430;-74
2023/03/16 05:43:29;;;;;;;9.23;4.30;;;1.60;99.90;;;;;;5032384;28;20488;-74
2023/03/16 05:45:56;;;;;;;11.67;4.20;;;1.70;99.90;;;;;;5044110;28;20555;-72
2023/03/16 05:48:24;;;;;;;9.13;7.17;;;1.70;99.90;;;;;;5052634;28;20459;-74
2023/03/16 05:50:51;;;;;;;9.90;4.83;;;1.70;99.90;;;;;;5049890;28;20436;-73
2023/03/16 05:53:17;;;;;;;6.20;5.07;;;1.80;99.90;;;;;;5051929;28;20539;-68
2023/03/16 05:55:43;;;;;;;9.70;3.83;;;1.80;99.90;;;;;;5051728;28;20440;-68
2023/03/16 05:58:10;;;;;;;8.03;4.37;;;1.80;99.90;;;;;;5034822;28;20413;-67
2023/03/16 06:00:38;;;;;;;6.90;4.17;;;1.90;99.90;;;;;;5050579;28;20500;-73
2023/03/16 06:03:04;;;;;;;10.43;4.53;;;1.90;99.90;;;;;;5052068;28;20425;-69
2023/03/16 06:05:30;;;;;;;5.77;5.27;;;1.90;99.90;;;;;;5034111;28;20518;-68
2023/03/16 06:07:56;;;;;;;7.10;5.50;;;2.00;99.90;;;;;;5051750;28;20828;-68
2023/03/16 06:10:23;;;;;;;7.93;4.83;;;2.00;99.90;;;;;;5051307;28;20571;-74
2023/03/16 06:12:48;;;;;;;6.87;5.07;;;2.00;99.90;;;;;;5033218;28;20810;-68
2023/03/16 06:15:14;;;;;;;18.30;6.33;;;2.10;99.90;;;;;;5054292;28;20396;-68
2023/03/16 06:17:40;;;;;;;8.10;5.73;;;2.10;99.90;;;;;;5054651;28;20433;-74
2023/03/16 06:20:13;;;;;;;5.50;4.53;;;2.20;99.90;;;;;;5054748;28;20179;-74
2023/03/16 06:22:40;;;;;;;6.90;5.80;;;2.20;99.90;;;;;;5055288;28;20444;-73
2023/03/16 06:25:07;;;;;;;8.90;5.43;;;2.20;99.90;;;;;;5053607;28;20460;-68
2023/03/16 06:27:33;;;;;;;5.53;4.40;;;2.20;99.90;;;;;;5055258;28;20824;-73
2023/03/16 06:29:58;;;;;;;5.00;4.50;;;2.30;99.90;;;;;;5049585;28;20472;-73
2023/03/16 06:32:24;;;;;;;9.40;7.40;;;2.30;99.90;;;;;;5035143;28;20191;-74
2023/03/16 06:34:50;;;;;;;9.57;4.70;;;2.40;99.90;;;;;;5021857;28;20213;-73
2023/03/16 06:37:16;;;;;;;7.57;5.63;;;2.40;99.90;;;;;;5036370;28;20191;-72
2023/03/16 06:39:43;;;;;;;15.00;5.93;;;2.50;99.90;;;;;;5033667;28;20262;-74
2023/03/16 06:42:09;;;;;;;5.17;4.77;;;2.50;99.90;;;;;;5052491;28;20207;-71
2023/03/16 06:44:36;;;;;;;12.30;5.73;;;2.60;99.90;;;;;;5054485;28;20425;-71
2023/03/16 06:47:02;;;;;;;6.10;5.50;;;2.60;99.90;;;;;;5054943;28;20436;-70
2023/03/16 06:49:28;;;;;;;10.30;5.53;;;2.60;99.90;;;;;;5055391;28;20754;-68
2023/03/16 06:51:55;;;;;;;12.17;5.30;;;2.70;99.90;;;;;;5052158;28;20453;-70
2023/03/16 06:54:21;;;;;;;10.10;5.60;;;2.70;99.90;;;;;;5055284;28;20439;-68
2023/03/16 06:56:47;;;;;;;7.50;5.60;;;2.70;99.90;;;;;;5050298;28;20433;-70
2023/03/16 06:59:12;;;;;;;10.10;5.00;;;2.80;99.90;;;;;;5048115;28;20418;-68
2023/03/16 07:01:38;;;;;;;9.00;5.77;;;2.80;99.90;;;;;;5027006;28;20199;-67
2023/03/16 07:04:03;;;;;;;5.47;4.93;;;2.90;99.90;;;;;;5054094;28;20590;-73
2023/03/16 07:06:30;;;;;;;7.10;5.17;;;3.00;99.90;;;;;;5034029;28;20261;-72
2023/03/16 07:08:55;;;;;;;10.83;4.90;;;3.00;99.90;;;;;;5052323;28;20203;-72
2023/03/16 07:11:22;;;;;;;7.93;3.93;;;3.10;99.90;;;;;;5046488;28;20527;-67
2023/03/16 07:13:48;;;;;;;7.73;6.27;;;3.10;99.90;;;;;;5055034;28;20276;-67
2023/03/16 07:16:13;;;;;;;10.50;5.43;;;3.20;99.90;;;;;;5036647;28;20504;-67
2023/03/16 07:18:43;;;;;;;9.73;4.30;;;3.20;99.90;;;;;;5053680;28;20181;-73
2023/03/16 07:21:09;;;;;;;7.80;4.03;;;3.30;99.90;;;;;;5053016;28;20179;-68
2023/03/16 07:23:34;;;;;;;7.23;4.53;;;3.40;99.90;;;;;;5053767;28;20472;-73
2023/03/16 07:26:00;;;;;;;11.47;4.83;;;3.40;99.90;;;;;;5053061;28;20896;-73
2023/03/16 07:28:26;;;;;;;5.30;4.77;;;3.40;99.90;;;;;;5054489;28;20278;-72
2023/03/16 07:30:52;;;;;;;6.50;3.67;;;3.50;99.90;;;;;;5030321;28;20474;-73
2023/03/16 07:33:19;;;;;;;13.70;5.10;;;3.60;99.90;;;;;;5036839;28;20473;-68
2023/03/16 07:35:45;;;;;;;6.03;4.13;;;3.60;99.90;;;;;;5054228;28;20453;-67
2023/03/16 07:38:11;;;;;;;5.80;3.90;;;3.70;97.20;;;;;;5052273;28;20461;-69
2023/03/16 07:40:39;;;;;;;10.40;3.90;;;3.70;90.30;;;;;;5052669;28;20187;-68
2023/03/16 07:43:05;;;;;;;5.50;4.43;;;3.80;90.30;;;;;;5054187;28;20995;-73
2023/03/16 07:45:30;;;;;;;10.17;3.70;;;3.80;72.50;;;;;;5050664;28;20470;-73
2023/03/16 07:47:56;;;;;;;4.87;3.23;;;4.00;65.30;;;;;;5054058;28;20846;-69
2023/03/16 07:50:22;;;;;;;4.73;4.20;;;4.10;61.70;;;;;;5052416;28;20218;-71
2023/03/16 07:52:48;;;;;;;4.23;3.83;;;4.10;26.30;;;;;;5053691;28;20449;-68
2023/03/16 07:55:14;;;;;;;4.57;3.60;;;4.10;10.60;;;;;;5053320;28;20187;-72
2023/03/16 07:57:41;;;;;;;8.03;3.87;;;4.10;4.60;;;;;;5034467;28;20532;-73
2023/03/16 08:00:08;;;;;;;12.63;3.60;;;4.20;1.80;;;;;;5051850;28;20442;-73
2023/03/16 08:02:34;;;;;;;10.00;3.57;;;4.20;1.00;;;;;;5053537;28;20445;-69
2023/03/16 08:05:01;;;;;;;7.80;3.30;;;4.30;1.00;;;;;;5035971;28;20532;-73
2023/03/16 08:07:27;;;;;;;9.50;4.00;;;4.30;1.00;;;;;;5053579;28;20208;-67
2023/03/16 08:09:52;;;;;;;4.53;3.03;;;4.40;1.00;;;;;;5035256;28;20433;-74
2023/03/16 08:12:18;;;;;;;5.50;3.37;;;4.40;1.00;;;;;;5052016;28;20204;-67
2023/03/16 08:14:45;;;;;;;3.53;3.23;;;4.50;1.00;;;;;;5050093;28;20783;-73
2023/03/16 08:17:11;;;;;;;6.30;4.30;;;4.50;1.00;;;;;;5053802;28;20165;-68
2023/03/16 08:19:37;;;;;;;3.20;2.90;;;4.60;1.00;;;;;;5035763;28;20920;-67
2023/03/16 08:22:04;;;;;;;7.80;3.87;;;4.70;1.00;;;;;;5034941;28;20461;-73
2023/03/16 08:24:31;;;;;;;3.50;3.20;;;4.80;1.00;;;;;;5053572;28;20422;-73
2023/03/16 08:26:57;;;;;;;3.67;3.30;;;4.90;1.00;;;;;;5052328;28;20952;-73
2023/03/16 08:29:24;;;;;;;3.20;3.00;;;5.00;1.00;;;;;;5051686;28;20542;-73
2023/03/16 08:31:53;;;;;;;7.10;3.20;;;5.00;1.00;;;;;;5051978;28;20465;-73
2023/03/16 08:34:19;;;;;;;4.63;3.10;;;5.10;1.00;;;;;;5053437;28;20413;-74
2023/03/16 08:36:44;;;;;;;13.83;3.87;;;5.20;1.00;;;;;;5052915;28;20885;-68
2023/03/16 08:39:10;;;;;;;3.67;3.37;;;5.30;1.00;;;;;;5053068;28;20163;-73
2023/03/16 08:41:36;;;;;;;5.17;3.93;;;5.30;1.00;;;;;;5032754;28;20253;-67
2023/03/16 08:44:02;;;;;;;10.70;3.33;;;5.40;1.00;;;;;;5053283;28;20173;-74
2023/03/16 08:46:28;;;;;;;5.50;4.10;;;5.50;1.00;;;;;;5053179;28;20559;-67
2023/03/16 08:48:56;;;;;;;3.77;3.43;;;5.50;1.00;;;;;;5035267;28;20182;-71
2023/03/16 08:51:22;;;;;;;4.90;3.90;;;5.70;1.00;;;;;;5051688;28;20214;-74
2023/03/16 08:53:48;;;;;;;5.20;3.53;;;5.70;1.00;;;;;;5052318;28;20524;-68
2023/03/16 08:56:14;;;;;;;4.03;3.40;;;5.80;1.00;;;;;;5034793;28;20269;-73
2023/03/16 08:58:44;;;;;;;10.33;3.50;;;5.90;1.00;;;;;;5052775;28;20635;-68
2023/03/16 09:01:12;;;;;;;7.43;3.33;;;5.90;1.00;;;;;;5052019;28;20401;-68
2023/03/16 09:03:39;;;;;;;9.27;4.10;;;5.90;1.00;;;;;;5053002;28;20450;-72
2023/03/16 09:06:08;;;;;;;7.30;3.33;;;5.90;1.00;;;;;;5050803;28;20456;-69
2023/03/16 09:08:35;;;;;;;3.80;3.30;;;6.00;1.00;;;;;;5052285;28;20423;-68
2023/03/16 09:11:13;;;;;;;10.90;4.40;;;6.10;1.00;;;;;;5049171;28;20433;-74
2023/03/16 09:13:40;;;;;;;5.83;3.90;;;6.20;1.00;;;;;;5052038;28;20507;-73
2023/03/16 09:16:10;;;;;;;5.37;3.00;;;6.30;1.00;;;;;;5051840;28;20433;-71
2023/03/16 09:18:37;;;;;;;3.30;2.97;;;6.30;1.00;;;;;;5051813;28;20440;-67
2023/03/16 09:21:05;;;;;;;3.93;3.03;;;6.30;1.00;;;;;;5032115;28;20842;-68
2023/03/16 09:23:33;;;;;;;3.60;3.27;;;6.30;1.00;;;;;;5052739;28;20503;-73
2023/03/16 09:26:01;;;;;;;3.23;2.93;;;6.20;1.00;;;;;;5050561;28;20461;-74
2023/03/16 09:28:28;;;;;;;4.93;3.40;;;6.20;1.00;;;;;;5048548;28;20444;-73
2023/03/16 09:30:55;;;;;;;3.60;2.90;;;6.20;1.00;;;;;;5033878;28;20421;-73
2023/03/16 09:33:23;;;;;;;3.70;3.40;;;6.20;1.00;;;;;;5050416;28;20436;-69
2023/03/16 09:35:49;;;;;;;5.00;3.57;;;6.20;1.00;;;;;;5050850;28;20429;-68
2023/03/16 09:38:16;;;;;;;6.73;3.00;;;6.20;1.00;;;;;;5048797;28;20456;-73
2023/03/16 09:40:43;;;;;;;5.80;4.00;;;6.10;1.00;;;;;;5051431;28;20861;-67
2023/03/16 09:43:41;;;;;;;4.60;3.37;;;6.20;1.00;;;;;;5050438;28;20840;-71
2023/03/16 09:46:26;;;;;;;3.70;3.40;;;6.20;1.00;;;;;;5051603;28;20464;-72
2023/03/16 09:48:53;;;;;;;3.37;3.00;;;6.30;1.00;;;;;;5050609;28;20436;-71
2023/03/16 09:51:29;;;;;;;3.60;3.27;;;6.40;1.00;;;;;;5054354;28;20456;-73
2023/03/16 09:54:01;;;;;;;3.20;3.07;;;6.50;1.00;;;;;;5055341;28;20416;-73
2023/03/16 09:56:49;;;;;;;3.63;3.43;;;6.60;1.00;;;;;;5056426;28;20398;-72
2023/03/16 09:59:33;;;;;;;6.20;3.33;;;6.80;1.00;;;;;;5037417;28;20433;-73
2023/03/16 10:02:56;;;;;;;11.77;3.23;;;6.90;1.00;;;;;;5053591;28;20460;-72
2023/03/16 10:05:23;;;;;;;3.33;2.47;;;7.00;1.00;;;;;;4974415;28;20464;-73
2023/03/16 10:07:54;;;;;;;5.83;3.20;;;7.00;1.00;;;;;;4975061;28;20527;-72
2023/03/16 10:10:41;;;;;;;4.13;2.88;;;7.20;1.00;;;;;;5015144;28;20428;-67
2023/03/16 10:13:26;;;;;;;3.20;3.00;;;7.40;1.00;;;;;;5037863;28;20248;-68
2023/03/16 10:15:53;;;;;;;3.27;2.67;;;7.70;1.00;;;;;;5055032;28;20966;-69
2023/03/16 10:18:28;;;;;;;5.30;2.73;;;7.90;1.00;;;;;;5054961;28;20440;-68
2023/03/16 10:20:54;;;;;;;3.93;2.30;;;8.00;1.00;;;;;;5055016;28;20409;-74
2023/03/16 10:23:23;;;;;;;6.60;3.00;;;8.10;1.00;;;;;;5037129;28;20460;-68
2023/03/16 10:25:53;;;;;;;4.23;2.97;;;8.30;1.00;;;;;;5055711;28;20453;-69
2023/03/16 10:28:25;;;;;;;5.67;2.30;;;8.50;1.00;;;;;;5055245;28;20436;-74
2023/03/16 10:30:54;;;;;;;2.80;2.60;;;8.50;1.00;;;;;;5051980;28;20421;-75
2023/03/16 10:33:26;;;;;;;8.37;3.03;;;8.70;1.00;;;;;;5053187;28;20510;-74
2023/03/16 10:36:26;;;;;;;4.47;2.60;;;8.80;1.00;;;;;;5053970;28;20450;-70
2023/03/16 10:39:07;;;;;;;3.43;2.80;;;8.80;1.00;;;;;;5055540;28;20466;-74
2023/03/16 10:41:36;;;;;;;2.73;2.20;;;8.80;1.00;;;;;;5035978;28;20445;-69
2023/03/16 10:44:10;;;;;;;3.40;2.47;;;8.80;1.00;;;;;;5055451;28;20797;-73
2023/03/16 10:46:57;;;;;;;6.17;3.67;;;8.90;1.00;;;;;;5055065;28;20479;-69
2023/03/16 10:49:40;;;;;;;4.40;3.03;;;9.00;1.00;;;;;;5037534;28;20479;-68
2023/03/16 10:52:36;;;;;;;4.30;3.00;;;9.10;1.00;;;;;;5052869;28;20426;-74
2023/03/16 10:55:19;;;;;;;4.23;2.53;;;9.20;1.00;;;;;;5055146;28;20432;-71
2023/03/16 10:57:53;;;;;;;4.40;2.90;;;9.30;1.00;;;;;;5036909;28;20419;-74
2023/03/16 11:00:24;;;;;;;3.20;2.67;;;9.10;1.00;;;;;;5053506;28;20434;-67
2023/03/16 11:02:55;;;;;;;3.13;2.30;;;9.10;1.00;;;;;;5037272;28;20425;-68
2023/03/16 11:05:28;;;;;;;7.80;3.40;;;9.00;1.00;;;;;;5053586;28;20466;-72
2023/03/16 11:08:10;;;;;;;4.77;3.03;;;8.90;1.00;;;;;;5054238;28;20441;-68
2023/03/16 11:10:43;;;;;;;3.80;2.27;;;9.00;1.00;;;;;;5053811;28;20425;-72
2023/03/16 11:13:16;;;;;;;5.83;2.47;;;9.00;1.00;;;;;;5032591;28;20468;-73
2023/03/16 11:16:26;;;;;;;6.20;3.00;;;8.80;1.00;;;;;;5052968;28;20418;-68
2023/03/16 11:19:15;;;;;;;3.83;2.63;;;9.00;1.00;;;;;;4970049;28;20934;-70
2023/03/16 11:21:50;;;;;;;3.23;2.20;;;9.10;1.00;;;;;;5044845;28;20420;-69
2023/03/16 11:24:58;;;;;;;3.90;2.20;;;9.00;1.00;;;;;;5053578;28;20400;-74
2023/03/16 11:27:47;;;;;;;4.93;2.40;;;8.90;1.00;;;;;;5008922;28;20789;-73
2023/03/16 11:30:55;;;;;;;4.33;2.40;;;8.90;1.00;;;;;;5051400;28;20943;-68
2023/03/16 11:33:21;;;;;;;3.20;2.10;;;8.90;1.00;;;;;;5050295;28;21084;-68
2023/03/16 11:36:19;;;;;;;2.40;1.90;;;9.00;1.00;;;;;;5053922;28;20361;-69
2023/03/16 11:39:03;;;;;;;5.13;2.70;;;9.00;1.00;;;;;;5054018;28;20927;-73
2023/03/16 11:41:47;;;;;;;2.60;2.30;;;9.20;1.00;;;;;;5051774;28;20972;-73
2023/03/16 11:44:58;;;;;;;5.10;2.00;;;9.20;1.00;;;;;;5054136;28;20770;-69
2023/03/16 11:47:57;;;;;;;2.50;2.30;;;9.20;1.00;;;;;;4973475;28;20805;-68
2023/03/16 11:50:45;;;;;;;2.30;2.20;;;9.30;1.00;;;;;;5033327;28;20416;-73
2023/03/16 11:53:49;;;;;;;6.80;2.27;;;9.40;1.00;;;;;;5037477;28;21003;-68
2023/03/16 11:56:37;;;;;;;2.40;1.90;;;9.40;1.00;;;;;;5022110;28;20433;-74
2023/03/16 11:59:28;;;;;;;1.70;1.60;;;9.60;1.00;;;;;;5035008;28;20435;-73
2023/03/16 12:02:04;;;;;;;2.30;2.10;;;9.70;1.00;;;;;;5052166;28;20986;-73
2023/03/16 12:04:50;;;;;;;3.87;1.83;;;9.50;1.00;;;;;;5035000;28;20436;-73
2023/03/16 12:07:43;;;;;;;2.60;1.50;;;9.50;1.00;;;;;;5053535;28;20428;-74
2023/03/16 12:10:41;;;;;;;2.83;1.77;;;9.40;1.00;;;;;;5053037;28;20401;-68
2023/03/16 12:13:11;;;;;;;3.67;2.07;;;9.20;1.00;;;;;;5036667;28;20532;-74
2023/03/16 12:15:48;;;;;;;2.10;1.90;;;9.00;1.00;;;;;;5035093;28;20428;-74
2023/03/16 12:18:17;;;;;;;3.40;1.93;;;9.00;1.00;;;;;;5053510;28;20409;-68
2023/03/16 12:21:14;;;;;;;2.77;2.57;;;9.00;1.00;;;;;;5052673;28;20423;-74
2023/03/16 12:24:21;;;;;;;2.20;2.00;;;9.00;1.00;;;;;;5037102;28;20975;-74
2023/03/16 12:26:48;;;;;;;2.10;1.90;;;9.00;1.00;;;;;;4996967;28;20468;-68
2023/03/16 12:29:18;;;;;;;12.00;7.47;;;9.10;1.00;;;;;;5052165;28;20454;-69
2023/03/16 12:31:54;;;;;;;3.67;3.13;;;9.20;1.00;;;;;;5049024;28;20443;-71
2023/03/16 12:34:41;;;;;;;4.30;2.17;;;9.40;1.00;;;;;;5051004;28;20448;-68
2023/03/16 12:37:41;;;;;;;2.93;2.43;;;9.50;1.00;;;;;;5033682;28;20408;-69
2023/03/16 12:40:32;;;;;;;2.57;2.13;;;9.60;1.00;;;;;;5024910;28;20438;-74
2023/03/16 12:43:16;;;;;;;1.80;1.70;;;9.70;1.00;;;;;;5050153;28;20425;-74
2023/03/16 12:45:57;;;;;;;1.87;1.57;;;9.90;1.00;;;;;;5051872;28;20471;-72
2023/03/16 12:48:29;;;;;;;2.67;1.63;;;10.10;99.90;;;;;;5025484;28;20424;-73
2023/03/16 12:51:00;;;;;;;3.00;1.73;;;10.30;99.90;;;;;;5050205;28;21021;-73
2023/03/16 12:53:42;;;;;;;2.60;1.70;;;10.20;99.90;;;;;;5050958;28;20494;-69
2023/03/16 12:56:15;;;;;;;2.77;1.60;;;10.60;99.90;;;;;;5048013;28;20441;-73
2023/03/16 12:58:49;;;;;;;1.90;1.80;;;10.80;99.90;;;;;;5050498;28;20491;-74
2023/03/16 13:01:18;;;;;;;1.67;1.57;;;10.90;99.90;;;;;;5051003;28;20489;-74
2023/03/16 13:03:49;;;;;;;1.30;1.20;;;11.00;99.90;;;;;;5052033;28;20790;-69
2023/03/16 13:06:23;;;;;;;1.57;1.30;;;10.90;99.90;;;;;;5053565;28;20826;-69
2023/03/16 13:08:58;;;;;;;1.73;1.27;;;10.80;99.90;;;;;;5049776;28;20418;-74
2023/03/16 13:11:25;;;;;;;1.77;1.67;;;10.60;99.90;;;;;;5049082;28;20454;-74
2023/03/16 13:14:00;;;;;;;1.60;1.43;;;10.50;99.90;;;;;;5051593;28;20459;-69
2023/03/16 13:16:31;;;;;;;3.77;1.40;;;10.50;99.90;;;;;;5034815;28;20764;-73
2023/03/16 13:18:57;;;;;;;1.50;1.40;;;10.30;99.90;;;;;;5051859;28;20488;-72